Time;durP1;ratioP1;P1;durP2;ratioP2;P2;SDS_P1;SDS_P2;PMS_P1;PMS_P2;Temp;Humidity;BMP_temperature;BMP_pressure;BME280_temperature;BME280_humidity;BME280_pressure;Samples;Min_cycle;Max_cycle;Signal;HPM_P1;HPM_P2
2022/06/05 00:00:20;;;;;;;0.00;0.00;;;21.70;99.90;;;;;;4941698;29;20134;-73
2022/06/05 00:03:18;;;;;;;0.00;0.00;;;21.70;99.90;;;;;;4938960;29;20725;-71
2022/06/05 00:06:00;;;;;;;0.00;0.00;;;21.70;99.90;;;;;;4927359;29;20239;-72
2022/06/05 00:08:38;;;;;;;0.00;0.00;;;21.70;99.90;;;;;;4932391;29;20760;-70
2022/06/05 00:11:07;;;;;;;0.00;0.00;;;21.70;99.90;;;;;;4926900;29;20024;-71
2022/06/05 00:13:40;;;;;;;0.00;0.00;;;21.80;99.90;;;;;;4930564;29;20024;-70
2022/06/05 00:16:06;;;;;;;0.00;0.00;;;21.70;99.90;;;;;;4913128;29;20035;-71
2022/06/05 00:18:34;;;;;;;0.00;0.00;;;21.70;99.90;;;;;;4905306;29;20055;-71
2022/06/05 00:20:59;;;;;;;0.00;0.00;;;21.70;99.90;;;;;;4924455;29;20015;-72
2022/06/05 00:23:25;;;;;;;0.00;0.00;;;21.70;99.90;;;;;;4907545;29;20091;-72
2022/06/05 00:26:03;;;;;;;0.00;0.00;;;21.70;99.90;;;;;;4918391;29;20073;-72
2022/06/05 00:28:40;;;;;;;0.00;0.00;;;21.70;99.90;;;;;;4909289;29;20068;-72
2022/06/05 00:31:44;;;;;;;0.00;0.00;;;21.70;99.90;;;;;;4915953;29;20027;-72
2022/06/05 00:34:10;;;;;;;0.00;0.00;;;21.70;99.90;;;;;;4882973;29;20032;-71
2022/06/05 00:36:45;;;;;;;0.00;0.00;;;21.70;99.90;;;;;;4898656;29;20055;-72
2022/06/05 00:39:31;;;;;;;0.00;0.00;;;21.60;99.90;;;;;;4918370;29;20053;-73
2022/06/05 00:42:01;;;;;;;0.00;0.00;;;21.60;99.90;;;;;;4925113;29;20035;-72
2022/06/05 00:44:49;;;;;;;0.00;0.00;;;21.60;99.90;;;;;;4914842;29;20047;-71
2022/06/05 00:47:18;;;;;;;0.00;0.00;;;21.50;99.90;;;;;;4924225;29;20052;-73
2022/06/05 00:50:05;;;;;;;0.00;0.00;;;21.50;99.90;;;;;;4926462;29;20024;-76
2022/06/05 00:52:33;;;;;;;0.00;0.00;;;21.50;99.90;;;;;;4908994;29;20024;-71
2022/06/05 00:54:59;;;;;;;0.00;0.00;;;21.50;99.90;;;;;;4929792;29;20046;-71
2022/06/05 00:57:30;;;;;;;0.00;0.00;;;21.50;99.90;;;;;;4932286;29;20055;-72
2022/06/05 00:59:57;;;;;;;0.00;0.00;;;21.50;99.90;;;;;;4925293;29;20035;-71
2022/06/05 01:02:23;;;;;;;0.00;0.00;;;21.50;99.90;;;;;;4914179;29;20325;-72
2022/06/05 01:04:50;;;;;;;0.00;0.00;;;21.40;99.90;;;;;;4937260;29;20122;-70
2022/06/05 01:07:19;;;;;;;0.00;0.00;;;21.40;99.90;;;;;;4929502;29;20023;-69
2022/06/05 01:09:46;;;;;;;0.00;0.00;;;21.40;99.90;;;;;;4947686;29;20035;-71
2022/06/05 01:12:21;;;;;;;0.00;0.00;;;21.40;99.90;;;;;;4930651;29;20020;-74
2022/06/05 01:15:28;;;;;;;0.00;0.00;;;21.30;99.90;;;;;;4927292;29;20052;-78
2022/06/05 01:18:19;;;;;;;0.00;0.00;;;21.30;99.90;;;;;;4940373;29;20019;-73
2022/06/05 01:21:03;;;;;;;0.00;0.00;;;21.30;99.90;;;;;;4948411;29;20091;-70
2022/06/05 01:23:54;;;;;;;0.00;0.00;;;21.30;99.90;;;;;;4941036;29;20032;-70
2022/06/05 01:27:01;;;;;;;0.00;0.00;;;21.30;99.90;;;;;;4942833;29;20035;-71
2022/06/05 01:29:41;;;;;;;0.00;0.00;;;21.30;99.90;;;;;;4939643;29;20031;-78
2022/06/05 01:32:11;;;;;;;0.00;0.00;;;21.20;99.90;;;;;;4951985;29;20576;-75
2022/06/05 01:34:51;;;;;;;0.00;0.00;;;21.20;99.90;;;;;;4939305;29;20350;-72
2022/06/05 01:37:21;;;;;;;0.00;0.00;;;21.20;99.90;;;;;;4945814;28;20079;-72
2022/06/05 01:40:15;;;;;;;0.00;0.00;;;21.20;99.90;;;;;;4955650;29;20473;-71
2022/06/05 01:42:46;;;;;;;0.00;0.00;;;21.20;99.90;;;;;;4930989;29;20318;-70
2022/06/05 01:45:18;;;;;;;0.00;0.00;;;21.20;99.90;;;;;;4956114;29;20046;-71
2022/06/05 01:47:48;;;;;;;0.00;0.00;;;21.20;99.90;;;;;;4953193;29;20045;-71
2022/06/05 01:50:23;;;;;;;0.00;0.00;;;21.20;99.90;;;;;;4931805;29;20102;-69
2022/06/05 01:53:03;;;;;;;0.00;0.00;;;21.20;99.90;;;;;;4941716;29;20031;-70
2022/06/05 01:55:56;;;;;;;0.00;0.00;;;21.20;99.90;;;;;;4949692;29;20035;-71
2022/06/05 01:58:28;;;;;;;0.00;0.00;;;21.20;99.90;;;;;;4954415;29;20051;-71
2022/06/05 02:00:59;;;;;;;0.00;0.00;;;21.20;99.90;;;;;;4931352;29;20518;-71
2022/06/05 02:03:39;;;;;;;0.00;0.00;;;21.10;99.90;;;;;;4938085;29;20048;-72
2022/06/05 02:06:14;;;;;;;0.00;0.00;;;21.10;99.90;;;;;;4917718;29;20291;-74
2022/06/05 02:08:39;;;;;;;0.00;0.00;;;21.10;99.90;;;;;;4920691;29;20035;-71
2022/06/05 02:11:21;;;;;;;0.00;0.00;;;21.10;99.90;;;;;;4931898;29;20047;-71
2022/06/05 02:13:54;;;;;;;0.00;0.00;;;21.10;99.90;;;;;;4926932;29;20106;-72
2022/06/05 02:16:20;;;;;;;0.00;0.00;;;21.00;99.90;;;;;;4931139;29;20102;-73
2022/06/05 02:18:47;;;;;;;0.00;0.00;;;21.00;99.90;;;;;;4933471;29;20361;-71
2022/06/05 02:21:13;;;;;;;0.00;0.00;;;21.00;99.90;;;;;;4927442;29;20333;-71
2022/06/05 02:23:40;;;;;;;0.00;0.00;;;20.90;99.90;;;;;;4927576;29;20044;-72
2022/06/05 02:26:08;;;;;;;0.00;0.00;;;20.90;99.90;;;;;;4915204;29;20299;-70
2022/06/05 02:28:34;;;;;;;0.00;0.00;;;20.90;99.90;;;;;;4929401;29;20317;-71
2022/06/05 02:31:24;;;;;;;0.00;0.00;;;20.90;99.90;;;;;;4912395;29;20023;-71
2022/06/05 02:34:34;;;;;;;0.00;0.00;;;20.80;99.90;;;;;;4915191;29;20020;-71
2022/06/05 02:37:12;;;;;;;0.00;0.00;;;20.80;99.90;;;;;;4934570;29;20039;-73
2022/06/05 02:39:59;;;;;;;0.00;0.00;;;20.80;99.90;;;;;;4914149;29;20024;-71
2022/06/05 02:42:57;;;;;;;0.00;0.00;;;20.70;99.90;;;;;;4929560;29;20023;-73
2022/06/05 02:45:26;;;;;;;0.00;0.00;;;20.70;99.90;;;;;;4923899;29;20036;-70
2022/06/05 02:48:25;;;;;;;0.00;0.00;;;20.80;99.90;;;;;;4931475;29;20020;-71
2022/06/05 02:51:00;;;;;;;0.00;0.00;;;20.70;99.90;;;;;;4919901;29;20326;-71
2022/06/05 02:53:26;;;;;;;0.00;0.00;;;20.60;99.90;;;;;;4913864;29;20188;-71
2022/06/05 02:55:51;;;;;;;0.00;0.00;;;20.60;99.90;;;;;;4920320;29;20132;-72
2022/06/05 02:58:17;;;;;;;0.00;0.00;;;20.60;99.90;;;;;;4933197;29;20028;-72
2022/06/05 03:03:27;;;;;;;0.00;0.00;;;20.60;99.90;;;;;;4907698;29;20024;-72
2022/06/05 03:03:29;;;;;;;0.00;0.00;;;20.60;99.90;;;;;;4931510;29;20060;-71
2022/06/05 03:05:55;;;;;;;0.00;0.00;;;20.60;99.90;;;;;;4932224;29;20200;-72
2022/06/05 03:08:21;;;;;;;0.00;0.00;;;20.60;99.90;;;;;;4925773;29;20099;-73
2022/06/05 03:10:47;;;;;;;0.00;0.00;;;20.50;99.90;;;;;;4913270;29;20029;-75
2022/06/05 03:13:13;;;;;;;0.00;0.00;;;20.50;99.90;;;;;;4928211;29;20333;-74
2022/06/05 03:15:43;;;;;;;0.00;0.00;;;20.60;99.90;;;;;;4931556;29;20039;-70
2022/06/05 03:18:12;;;;;;;0.00;0.00;;;20.50;99.90;;;;;;4922206;29;20155;-70
2022/06/05 03:20:38;;;;;;;0.00;0.00;;;20.50;99.90;;;;;;4907875;29;20024;-71
2022/06/05 03:23:04;;;;;;;0.00;0.00;;;20.50;99.90;;;;;;4930825;29;20047;-70
2022/06/05 03:25:30;;;;;;;0.00;0.00;;;20.50;99.90;;;;;;4935210;29;20040;-71
2022/06/05 03:27:57;;;;;;;0.00;0.00;;;20.50;99.90;;;;;;4928969;29;20086;-72
2022/06/05 03:30:22;;;;;;;0.00;0.00;;;20.50;99.90;;;;;;4911894;29;20027;-71
2022/06/05 03:32:48;;;;;;;0.00;0.00;;;20.50;99.90;;;;;;4910664;29;20211;-71
2022/06/05 03:35:14;;;;;;;0.00;0.00;;;20.50;99.90;;;;;;4929905;29;20055;-70
2022/06/05 03:37:40;;;;;;;0.00;0.00;;;20.50;99.90;;;;;;4908357;29;20447;-76
2022/06/05 03:40:12;;;;;;;0.00;0.00;;;20.50;99.90;;;;;;4919688;29;20323;-72
2022/06/05 03:42:38;;;;;;;0.00;0.00;;;20.50;99.90;;;;;;4924575;29;20075;-70
2022/06/05 03:45:04;;;;;;;0.00;0.00;;;20.50;99.90;;;;;;4929285;29;20027;-70
2022/06/05 03:47:30;;;;;;;0.00;0.00;;;20.50;99.90;;;;;;4916066;29;20023;-75
2022/06/05 03:49:56;;;;;;;0.00;0.00;;;20.50;99.90;;;;;;4922431;29;20362;-73
2022/06/05 03:52:21;;;;;;;0.00;0.00;;;20.50;99.90;;;;;;4927188;29;20035;-72
2022/06/05 03:54:47;;;;;;;0.00;0.00;;;20.50;99.90;;;;;;4918940;29;20016;-70
2022/06/05 03:57:13;;;;;;;0.00;0.00;;;20.50;99.90;;;;;;4929827;29;20059;-70
2022/06/05 03:59:38;;;;;;;0.00;0.00;;;20.50;99.90;;;;;;4926413;29;20090;-71
2022/06/05 04:02:05;;;;;;;0.00;0.00;;;20.50;99.90;;;;;;4909601;29;20052;-70
2022/06/05 04:04:31;;;;;;;0.00;0.00;;;20.50;99.90;;;;;;4942454;29;20044;-75
2022/06/05 04:06:57;;;;;;;0.00;0.00;;;20.50;99.90;;;;;;4949903;29;20041;-77
2022/06/05 04:09:22;;;;;;;0.00;0.00;;;20.50;99.90;;;;;;4956187;29;20027;-71
2022/06/05 04:11:48;;;;;;;0.00;0.00;;;20.50;99.90;;;;;;4943230;29;20095;-70
2022/06/05 04:14:14;;;;;;;0.00;0.00;;;20.50;99.90;;;;;;4926737;29;20034;-70
2022/06/05 04:16:42;;;;;;;0.00;0.00;;;20.50;99.90;;;;;;4937198;29;20036;-71
2022/06/05 04:19:08;;;;;;;0.00;0.00;;;20.50;99.90;;;;;;4926101;29;20650;-71
2022/06/05 04:21:36;;;;;;;0.00;0.00;;;20.50;99.90;;;;;;4949580;29;20031;-70
2022/06/05 04:24:02;;;;;;;;;;;20.50;99.90;;;;;;4945517;29;20298;-70
2022/06/05 04:26:33;;;;;;;0.00;0.00;;;20.50;99.90;;;;;;4936652;29;19945;-70
2022/06/05 04:28:59;;;;;;;0.00;0.00;;;20.50;99.90;;;;;;4945745;29;20016;-71
2022/06/05 04:31:28;;;;;;;0.00;0.00;;;20.50;99.90;;;;;;4932807;29;20024;-71
2022/06/05 04:33:57;;;;;;;0.00;0.00;;;20.50;99.90;;;;;;4930634;29;20027;-76
2022/06/05 04:36:23;;;;;;;0.00;0.00;;;20.50;99.90;;;;;;4940158;29;20043;-71
2022/06/05 04:38:49;;;;;;;0.00;0.00;;;20.50;99.90;;;;;;4949481;29;20218;-70
2022/06/05 04:41:16;;;;;;;0.00;0.00;;;20.50;99.90;;;;;;4926531;29;20023;-73
2022/06/05 04:43:42;;;;;;;0.00;0.00;;;20.50;99.90;;;;;;4948800;29;20099;-70
2022/06/05 04:46:08;;;;;;;0.00;0.00;;;20.50;99.90;;;;;;4939685;29;20031;-70
2022/06/05 04:48:34;;;;;;;0.00;0.00;;;20.50;99.90;;;;;;4943566;29;20100;-71
2022/06/05 04:51:08;;;;;;;0.00;0.00;;;20.50;99.90;;;;;;4954080;29;20055;-70
2022/06/05 04:53:34;;;;;;;0.00;0.00;;;20.50;99.90;;;;;;4933851;29;20026;-72
2022/06/05 04:56:15;;;;;;;0.00;0.00;;;20.50;99.90;;;;;;4950618;29;20043;-70
2022/06/05 04:58:41;;;;;;;0.00;0.00;;;20.50;99.90;;;;;;4944819;29;20283;-70
2022/06/05 05:01:16;;;;;;;0.00;0.00;;;20.50;99.90;;;;;;4940428;29;20152;-73
2022/06/05 05:03:42;;;;;;;0.00;0.00;;;20.60;99.90;;;;;;4949338;29;20162;-69
2022/06/05 05:06:09;;;;;;;0.00;0.00;;;20.60;99.90;;;;;;4950021;29;20090;-70
2022/06/05 05:08:34;;;;;;;0.00;0.00;;;20.60;99.90;;;;;;4947596;29;20314;-70
2022/06/05 05:11:00;;;;;;;0.00;0.00;;;20.60;99.90;;;;;;4944673;29;20062;-70
2022/06/05 05:13:26;;;;;;;0.00;0.00;;;20.60;99.90;;;;;;4932935;29;20539;-70
2022/06/05 05:15:53;;;;;;;0.00;0.00;;;20.60;99.90;;;;;;4941010;29;20106;-70
2022/06/05 05:18:19;;;;;;;0.00;0.00;;;20.60;99.90;;;;;;4953352;29;20031;-70
2022/06/05 05:20:46;;;;;;;0.00;0.00;;;20.70;99.90;;;;;;4943256;29;20725;-70
2022/06/05 05:23:12;;;;;;;0.00;0.00;;;20.70;99.90;;;;;;4952734;29;20019;-70
2022/06/05 05:25:38;;;;;;;0.00;0.00;;;20.70;99.90;;;;;;4944136;29;20095;-71
2022/06/05 05:28:06;;;;;;;0.00;0.00;;;20.70;99.90;;;;;;4943950;29;20664;-71
2022/06/05 05:30:35;;;;;;;0.00;0.00;;;20.80;99.90;;;;;;4943704;29;20251;-71
2022/06/05 05:33:00;;;;;;;0.00;0.00;;;20.80;99.90;;;;;;4936980;29;20030;-71
2022/06/05 05:35:26;;;;;;;0.00;0.00;;;20.90;99.90;;;;;;4943688;29;20039;-72
2022/06/05 05:37:52;;;;;;;0.00;0.00;;;20.90;99.90;;;;;;4950436;29;20236;-71
2022/06/05 05:43:02;;;;;;;0.00;0.00;;;20.90;99.90;;;;;;4955068;29;20023;-71
2022/06/05 05:45:28;;;;;;;0.00;0.00;;;21.00;99.90;;;;;;4927665;29;20418;-71
2022/06/05 05:47:53;;;;;;;0.00;0.00;;;21.00;99.90;;;;;;4933779;29;20063;-71
2022/06/05 05:50:19;;;;;;;0.00;0.00;;;21.00;99.90;;;;;;4946944;29;20307;-71
2022/06/05 05:52:45;;;;;;;0.00;0.00;;;21.10;99.90;;;;;;4949971;29;20087;-70
2022/06/05 05:55:17;;;;;;;0.00;0.00;;;21.00;99.90;;;;;;4933067;29;20036;-70
2022/06/05 05:57:45;;;;;;;0.00;0.00;;;21.10;99.90;;;;;;4925354;29;20024;-70
2022/06/05 06:00:14;;;;;;;0.00;0.00;;;21.10;99.90;;;;;;4934118;29;20034;-70
2022/06/05 06:02:41;;;;;;;0.00;0.00;;;21.10;99.90;;;;;;4953801;29;20027;-70
2022/06/05 06:05:10;;;;;;;0.00;0.00;;;21.20;99.90;;;;;;4930876;29;20325;-72
2022/06/05 06:07:36;;;;;;;0.00;0.00;;;21.30;99.90;;;;;;4948923;29;20215;-71
2022/06/05 06:10:03;;;;;;;0.00;0.00;;;21.40;99.90;;;;;;4944786;29;20026;-70
2022/06/05 06:12:28;;;;;;;0.00;0.00;;;21.60;99.90;;;;;;4952487;29;20306;-70
2022/06/05 06:14:54;;;;;;;0.00;0.00;;;22.00;99.90;;;;;;4955636;29;20106;-73
2022/06/05 06:17:21;;;;;;;0.00;0.00;;;22.40;99.90;;;;;;4949226;29;20248;-69
2022/06/05 06:19:46;;;;;;;0.00;0.00;;;22.80;99.90;;;;;;4949818;29;20136;-75
2022/06/05 06:22:12;;;;;;;0.00;0.00;;;23.30;99.90;;;;;;4939278;29;20206;-76
2022/06/05 06:24:38;;;;;;;0.00;0.00;;;23.70;99.90;;;;;;4943165;29;20307;-72
2022/06/05 06:27:04;;;;;;;0.00;0.00;;;24.20;99.90;;;;;;4932272;29;20030;-72
2022/06/05 06:29:30;;;;;;;0.00;0.00;;;24.60;99.90;;;;;;4942829;29;20250;-71
2022/06/05 06:31:56;;;;;;;0.00;0.00;;;25.20;99.90;;;;;;4948924;29;20043;-72
2022/06/05 06:34:22;;;;;;;0.00;0.00;;;25.60;99.90;;;;;;4939247;29;20015;-72
2022/06/05 06:36:48;;;;;;;0.00;0.00;;;25.90;99.90;;;;;;4944071;29;20040;-72
2022/06/05 06:39:14;;;;;;;0.00;0.00;;;26.20;98.60;;;;;;4949838;29;20026;-72
2022/06/05 06:41:39;;;;;;;0.00;0.00;;;26.40;96.80;;;;;;4949406;29;20065;-70
2022/06/05 06:44:06;;;;;;;0.00;0.00;;;26.60;97.20;;;;;;4938881;29;20205;-71
2022/06/05 06:46:32;;;;;;;0.00;0.00;;;26.80;96.60;;;;;;4941299;29;20020;-71
2022/06/05 06:48:58;;;;;;;0.00;0.00;;;27.10;96.50;;;;;;4941171;29;20027;-71
2022/06/05 06:51:25;;;;;;;0.00;0.00;;;27.40;96.40;;;;;;4950268;29;20082;-71
2022/06/05 06:53:50;;;;;;;0.00;0.00;;;27.70;94.60;;;;;;4923823;29;20027;-71
2022/06/05 06:56:20;;;;;;;0.00;0.00;;;27.80;95.00;;;;;;4954407;29;20042;-70
2022/06/05 06:58:47;;;;;;;0.00;0.00;;;27.90;93.20;;;;;;4930161;29;20038;-71
2022/06/05 07:01:13;;;;;;;0.00;0.00;;;28.00;93.70;;;;;;4944453;29;20454;-71
2022/06/05 07:03:39;;;;;;;0.00;0.00;;;28.20;93.10;;;;;;4948677;29;20122;-73
2022/06/05 07:06:11;;;;;;;0.00;0.00;;;28.30;91.80;;;;;;4929334;29;20279;-77
2022/06/05 07:08:37;;;;;;;0.00;0.00;;;28.50;92.60;;;;;;4928522;29;20054;-72
2022/06/05 07:11:07;;;;;;;0.00;0.00;;;28.40;91.20;;;;;;4933113;29;20031;-71
2022/06/05 07:13:33;;;;;;;0.00;0.00;;;28.50;91.50;;;;;;4926108;29;20030;-72
2022/06/05 07:15:59;;;;;;;0.00;0.00;;;28.50;91.00;;;;;;4920603;29;20028;-76
2022/06/05 07:18:25;;;;;;;0.00;0.00;;;28.60;90.90;;;;;;4933565;29;20036;-71
2022/06/05 07:20:51;;;;;;;0.00;0.00;;;28.50;90.30;;;;;;4916782;29;20044;-72
2022/06/05 07:23:17;;;;;;;0.00;0.00;;;28.40;89.00;;;;;;4912070;29;20031;-75
2022/06/05 07:25:51;;;;;;;0.00;0.00;;;27.90;89.00;;;;;;4928667;29;20019;-70
2022/06/05 07:28:18;;;;;;;0.00;0.00;;;27.40;89.60;;;;;;4931933;29;20056;-71
2022/06/05 07:30:49;;;;;;;0.00;0.00;;;27.00;90.30;;;;;;4933236;29;20121;-71
2022/06/05 07:33:16;;;;;;;0.00;0.00;;;26.60;91.10;;;;;;4915946;29;20260;-74
2022/06/05 07:35:42;;;;;;;0.00;0.00;;;26.20;90.70;;;;;;4914685;29;20210;-71
2022/06/05 07:38:11;;;;;;;0.00;0.00;;;25.80;91.90;;;;;;4932932;29;20091;-71
2022/06/05 07:40:42;;;;;;;0.00;0.00;;;25.50;91.90;;;;;;4926217;29;20071;-72
2022/06/05 07:43:09;;;;;;;0.00;0.00;;;25.30;93.00;;;;;;4925916;29;20026;-71
2022/06/05 07:45:35;;;;;;;0.00;0.00;;;25.10;93.10;;;;;;4913482;29;20331;-71
2022/06/05 07:48:01;;;;;;;0.00;0.00;;;25.00;93.30;;;;;;4908402;29;20023;-71
2022/06/05 07:50:26;;;;;;;0.00;0.00;;;24.80;93.50;;;;;;4930114;29;20159;-78
2022/06/05 07:55:36;;;;;;;0.00;0.00;;;24.70;94.00;;;;;;4929611;29;20071;-78
2022/06/05 07:58:02;;;;;;;0.00;0.00;;;24.70;94.50;;;;;;4929824;29;20027;-71
2022/06/05 08:00:29;;;;;;;0.00;0.00;;;24.80;94.60;;;;;;4929793;29;20184;-73
2022/06/05 08:02:54;;;;;;;0.00;0.00;;;25.00;94.50;;;;;;4927485;29;20048;-70
2022/06/05 08:05:20;;;;;;;0.00;0.00;;;25.30;95.20;;;;;;4915223;29;20117;-71
2022/06/05 08:07:45;;;;;;;0.00;0.00;;;25.90;94.80;;;;;;4932308;29;20090;-71
2022/06/05 08:10:11;;;;;;;0.00;0.00;;;26.60;95.10;;;;;;4927796;29;20469;-71
2022/06/05 08:12:37;;;;;;;0.00;0.00;;;27.50;94.50;;;;;;4930208;29;20091;-74
2022/06/05 08:15:12;;;;;;;0.00;0.00;;;28.40;93.30;;;;;;4925359;29;20072;-71
2022/06/05 08:17:38;;;;;;;0.00;0.00;;;29.40;91.50;;;;;;4908687;29;20024;-72
2022/06/05 08:20:06;;;;;;;0.00;0.00;;;30.20;90.00;;;;;;4931698;29;20019;-75
2022/06/05 08:22:31;;;;;;;0.00;0.00;;;30.90;87.70;;;;;;4928269;29;20042;-72
2022/06/05 08:24:57;;;;;;;0.00;0.00;;;31.60;86.00;;;;;;4927500;29;20032;-71
2022/06/05 08:27:25;;;;;;;0.00;0.00;;;32.20;81.90;;;;;;4928876;29;20274;-71
2022/06/05 08:29:55;;;;;;;0.00;0.00;;;32.70;81.00;;;;;;4919874;29;20091;-70
2022/06/05 08:32:22;;;;;;;0.00;0.00;;;33.30;78.30;;;;;;4929202;29;20322;-71
2022/06/05 08:34:48;;;;;;;0.00;0.00;;;33.70;75.10;;;;;;4920664;29;20149;-71
2022/06/05 08:43:07;;;;;;;0.00;0.00;;;34.70;70.60;;;;;;4928350;29;20180;-71
2022/06/05 08:45:53;;;;;;;0.00;0.00;;;34.90;68.80;;;;;;4929538;29;20020;-71
2022/06/05 08:48:33;;;;;;;0.00;0.00;;;35.40;67.20;;;;;;4934552;29;20028;-70
2022/06/05 08:51:31;;;;;;;0.00;0.00;;;35.70;66.50;;;;;;4929735;29;20306;-76
2022/06/05 08:54:03;;;;;;;0.00;0.00;;;35.80;65.60;;;;;;4927029;29;20032;-74
2022/06/05 08:56:38;;;;;;;0.00;0.00;;;36.20;65.00;;;;;;4922814;29;20337;-71
2022/06/05 08:59:10;;;;;;;0.00;0.00;;;36.50;62.50;;;;;;4912233;29;20922;-71
2022/06/05 09:02:02;;;;;;;0.00;0.00;;;36.70;61.50;;;;;;4931113;29;20080;-74
2022/06/05 09:04:39;;;;;;;0.00;0.00;;;37.10;63.00;;;;;;4918256;29;20050;-71
2022/06/05 09:07:10;;;;;;;0.00;0.00;;;37.60;59.20;;;;;;4941259;29;20031;-71
2022/06/05 09:09:54;;;;;;;0.00;0.00;;;37.60;60.00;;;;;;4940561;29;20363;-71
2022/06/05 09:12:40;;;;;;;0.00;0.00;;;37.70;56.90;;;;;;4937225;29;20042;-71
2022/06/05 09:15:17;;;;;;;0.00;0.00;;;37.90;57.70;;;;;;4950368;29;20027;-74
2022/06/05 09:17:51;;;;;;;0.00;0.00;;;38.00;56.70;;;;;;4954854;29;20055;-71
2022/06/05 09:20:18;;;;;;;0.00;0.00;;;38.40;55.80;;;;;;4928260;29;20091;-77
2022/06/05 09:22:59;;;;;;;0.00;0.00;;;38.70;55.40;;;;;;4929184;29;20055;-71
2022/06/05 09:25:43;;;;;;;0.00;0.00;;;39.10;56.30;;;;;;4930130;29;20023;-74
2022/06/05 09:28:35;;;;;;;0.00;0.00;;;39.50;52.70;;;;;;4926080;29;20059;-71
2022/06/05 09:31:12;;;;;;;0.00;0.00;;;39.70;53.50;;;;;;4930657;29;20035;-71
2022/06/05 09:33:41;;;;;;;0.00;0.00;;;39.80;52.80;;;;;;4929166;29;20038;-72
2022/06/05 09:36:16;;;;;;;0.00;0.00;;;40.00;51.10;;;;;;4940204;29;20034;-74
2022/06/05 09:38:47;;;;;;;0.00;0.00;;;40.20;51.30;;;;;;4944962;29;20083;-72
2022/06/05 09:41:25;;;;;;;0.00;0.00;;;40.30;50.30;;;;;;4949036;29;20310;-71
2022/06/05 09:44:28;;;;;;;0.00;0.00;;;40.40;49.20;;;;;;4950739;28;20143;-71
2022/06/05 09:47:21;;;;;;;0.00;0.00;;;40.50;48.30;;;;;;4926062;29;20092;-71
2022/06/05 09:49:54;;;;;;;0.00;0.00;;;40.70;49.10;;;;;;4926707;29;20214;-72
2022/06/05 09:52:21;;;;;;;0.00;0.00;;;40.90;48.50;;;;;;4945379;28;20674;-71
2022/06/05 09:55:03;;;;;;;0.00;0.00;;;40.90;48.50;;;;;;4922262;29;20031;-73
2022/06/05 10:00:44;;;;;;;0.00;0.00;;;41.10;48.40;;;;;;4942487;29;20333;-72
2022/06/05 10:03:16;;;;;;;0.00;0.00;;;41.50;48.30;;;;;;4944549;29;20044;-76
2022/06/05 10:05:45;;;;;;;0.00;0.00;;;41.40;47.50;;;;;;4923838;29;20222;-72
2022/06/05 10:08:22;;;;;;;0.00;0.00;;;41.70;47.90;;;;;;4933207;29;20020;-72
2022/06/05 10:10:50;;;;;;;0.00;0.00;;;41.90;48.10;;;;;;4924638;29;20047;-72
2022/06/05 10:13:16;;;;;;;0.00;0.00;;;42.20;47.50;;;;;;4934192;29;20048;-72
2022/06/05 10:15:55;;;;;;;0.00;0.00;;;42.50;46.80;;;;;;4909640;29;20316;-72
2022/06/05 10:18:28;;;;;;;0.00;0.00;;;42.60;46.60;;;;;;4931410;29;20307;-73
2022/06/05 10:20:57;;;;;;;0.00;0.00;;;42.90;45.50;;;;;;4927943;29;20302;-74
2022/06/05 10:23:25;;;;;;;0.00;0.00;;;43.30;45.50;;;;;;4929209;29;20027;-75
2022/06/05 10:26:20;;;;;;;0.00;0.00;;;44.10;44.40;;;;;;4936096;29;20023;-71
2022/06/05 10:28:49;;;;;;;0.00;0.00;;;44.00;44.40;;;;;;4935404;29;20051;-77
2022/06/05 10:31:28;;;;;;;0.00;0.00;;;44.10;43.50;;;;;;4934302;29;20035;-71
2022/06/05 10:34:15;;;;;;;0.00;0.00;;;44.50;43.90;;;;;;4927971;29;20236;-71
2022/06/05 10:37:03;;;;;;;0.00;0.00;;;44.40;42.50;;;;;;4922765;29;20043;-75
2022/06/05 10:39:49;;;;;;;0.00;0.00;;;44.30;43.20;;;;;;4904998;29;20020;-71
2022/06/05 10:42:22;;;;;;;0.00;0.00;;;44.60;43.10;;;;;;4925437;29;20563;-75
2022/06/05 10:45:01;;;;;;;0.00;0.00;;;45.20;42.80;;;;;;4935247;29;20049;-71
2022/06/05 10:47:39;;;;;;;0.00;0.00;;;44.50;42.10;;;;;;4921295;29;20046;-77
2022/06/05 10:50:29;;;;;;;0.00;0.00;;;44.90;42.30;;;;;;4928841;29;20072;-71
2022/06/05 10:53:31;;;;;;;0.00;0.00;;;45.20;42.30;;;;;;4926819;29;20020;-74
2022/06/05 10:56:27;;;;;;;0.00;0.00;;;45.70;42.00;;;;;;4924828;29;20071;-77
2022/06/05 10:59:14;;;;;;;0.00;0.00;;;45.80;41.20;;;;;;4922192;29;20041;-72
2022/06/05 11:02:03;;;;;;;0.00;0.00;;;45.80;41.10;;;;;;4920116;29;20015;-71
2022/06/05 11:04:45;;;;;;;0.00;0.00;;;46.20;41.10;;;;;;4910354;29;20177;-72
2022/06/05 11:07:24;;;;;;;0.00;0.00;;;45.60;39.60;;;;;;4941641;29;20019;-72
2022/06/05 11:10:02;;;;;;;0.00;0.00;;;45.50;41.80;;;;;;4955748;29;20176;-72
2022/06/05 11:15:39;;;;;;;0.00;0.00;;;45.00;40.40;;;;;;4951582;29;20065;-73
2022/06/05 11:18:05;;;;;;;0.00;0.00;;;45.20;39.90;;;;;;4936167;29;20294;-71
2022/06/05 11:20:33;;;;;;;0.00;0.00;;;44.80;40.40;;;;;;4955091;29;20075;-76
2022/06/05 11:23:09;;;;;;;0.00;0.00;;;43.30;40.50;;;;;;4938455;29;20019;-73
2022/06/05 11:25:41;;;;;;;0.00;0.00;;;42.70;41.10;;;;;;4929283;29;20090;-72
2022/06/05 11:28:40;;;;;;;0.00;0.00;;;41.60;41.50;;;;;;4929759;29;20202;-73
2022/06/05 11:31:05;;;;;;;0.00;0.00;;;40.40;42.10;;;;;;4954817;29;20030;-72
2022/06/05 11:33:35;;;;;;;0.00;0.00;;;39.10;43.10;;;;;;4927168;29;20024;-80
2022/06/05 11:36:23;;;;;;;0.00;0.00;;;37.80;45.10;;;;;;4941663;29;20071;-74
2022/06/05 11:39:07;;;;;;;0.00;0.00;;;37.00;46.30;;;;;;4935387;29;20106;-72
2022/06/05 11:41:53;;;;;;;0.00;0.00;;;35.70;47.70;;;;;;4947132;29;20079;-72
2022/06/05 11:44:38;;;;;;;0.00;0.00;;;35.10;48.80;;;;;;4944369;29;20023;-76
2022/06/05 11:47:10;;;;;;;0.00;0.00;;;34.20;49.60;;;;;;4938322;29;20107;-72
2022/06/05 11:50:02;;;;;;;0.00;0.00;;;33.50;51.80;;;;;;4941309;29;20047;-71
2022/06/05 11:52:41;;;;;;;0.00;0.00;;;32.90;53.70;;;;;;4931718;29;20035;-72
2022/06/05 11:55:13;;;;;;;0.00;0.00;;;32.30;52.10;;;;;;4925264;29;20031;-74
2022/06/05 11:57:57;;;;;;;0.00;0.00;;;32.00;54.70;;;;;;4925017;29;20046;-72
2022/06/05 12:00:32;;;;;;;0.00;0.00;;;31.60;53.70;;;;;;4923631;29;20346;-72
2022/06/05 12:03:05;;;;;;;0.00;0.00;;;31.20;54.70;;;;;;4929358;29;20126;-72
2022/06/05 12:05:55;;;;;;;0.00;0.00;;;31.10;55.80;;;;;;4930648;29;20024;-72
2022/06/05 12:08:31;;;;;;;0.00;0.00;;;30.90;56.70;;;;;;4944684;29;20015;-73
2022/06/05 12:11:08;;;;;;;0.00;0.00;;;30.70;57.10;;;;;;4946464;29;20204;-71
2022/06/05 12:13:43;;;;;;;0.00;0.00;;;30.60;57.90;;;;;;4926011;29;20051;-73
2022/06/05 12:16:15;;;;;;;0.00;0.00;;;30.60;58.00;;;;;;4951035;29;20058;-72
2022/06/05 12:18:50;;;;;;;0.00;0.00;;;30.30;58.20;;;;;;4938035;29;20091;-73
2022/06/05 12:21:45;;;;;;;0.00;0.00;;;30.20;59.50;;;;;;4940341;28;20238;-72
2022/06/05 12:24:43;;;;;;;0.00;0.00;;;30.20;59.80;;;;;;4939810;29;20067;-75
2022/06/05 12:27:12;;;;;;;0.00;0.00;;;29.80;59.60;;;;;;4918073;29;20032;-71
2022/06/05 12:29:46;;;;;;;0.00;0.00;;;29.70;59.60;;;;;;4937056;29;20039;-72
2022/06/05 12:32:36;;;;;;;0.00;0.00;;;29.60;59.20;;;;;;4922172;29;20024;-70
2022/06/05 12:35:12;;;;;;;0.00;0.00;;;29.50;59.60;;;;;;4932084;29;20322;-71
2022/06/05 12:37:43;;;;;;;0.00;0.00;;;29.40;59.70;;;;;;4937590;29;20027;-71
2022/06/05 12:40:21;;;;;;;0.00;0.00;;;29.50;60.20;;;;;;4935763;29;20015;-74
2022/06/05 12:43:01;;;;;;;0.00;0.00;;;29.40;60.20;;;;;;4928875;29;20027;-72
2022/06/05 12:45:31;;;;;;;0.00;0.00;;;29.60;60.40;;;;;;4938804;28;20345;-76
2022/06/05 12:48:32;;;;;;;0.00;0.00;;;29.70;60.10;;;;;;4947214;29;20054;-76
2022/06/05 12:51:12;;;;;;;0.00;0.00;;;29.70;59.60;;;;;;4953540;29;20370;-72
2022/06/05 12:53:50;;;;;;;0.00;0.00;;;29.70;59.60;;;;;;4941943;29;20964;-72
2022/06/05 12:56:38;;;;;;;0.00;0.00;;;29.50;58.20;;;;;;4926008;29;20083;-73
2022/06/05 12:59:22;;;;;;;0.00;0.00;;;29.30;59.20;;;;;;4936397;29;20026;-75
2022/06/05 13:02:36;;;;;;;0.00;0.00;;;29.40;58.80;;;;;;4947759;29;20020;-71
2022/06/05 13:05:40;;;;;;;0.00;0.00;;;29.60;58.80;;;;;;4937097;29;20047;-72
2022/06/05 13:08:09;;;;;;;0.00;0.00;;;29.50;58.40;;;;;;4926188;29;20035;-73
2022/06/05 13:10:44;;;;;;;0.00;0.00;;;29.60;58.40;;;;;;4949028;28;20090;-72
2022/06/05 13:13:48;;;;;;;0.00;0.00;;;29.70;58.80;;;;;;4929312;29;20019;-74
2022/06/05 13:16:29;;;;;;;0.00;0.00;;;29.90;59.00;;;;;;4943931;28;20075;-72
2022/06/05 13:19:04;;;;;;;0.00;0.00;;;29.90;57.20;;;;;;4941903;29;20325;-71
2022/06/05 13:21:45;;;;;;;0.00;0.00;;;30.00;56.80;;;;;;4931899;29;20050;-71
2022/06/05 13:24:31;;;;;;;0.00;0.00;;;30.00;57.00;;;;;;4949309;28;20067;-71
2022/06/05 13:27:05;;;;;;;0.00;0.00;;;29.90;56.70;;;;;;4947299;29;20331;-73
2022/06/05 13:29:40;;;;;;;0.00;0.00;;;29.70;56.40;;;;;;4933038;29;20032;-71
2022/06/05 13:32:17;;;;;;;0.00;0.00;;;29.50;57.60;;;;;;4933573;29;20026;-73
2022/06/05 13:34:53;;;;;;;0.00;0.00;;;29.40;57.80;;;;;;4946038;28;20030;-72
2022/06/05 13:37:55;;;;;;;0.00;0.00;;;29.40;57.40;;;;;;4945352;29;20039;-73